Time;durP1;ratioP1;P1;durP2;ratioP2;P2;SDS_P1;SDS_P2;PMS_P1;PMS_P2;Temp;Humidity;BMP_temperature;BMP_pressure;BME280_temperature;BME280_humidity;BME280_pressure;Samples;Min_cycle;Max_cycle;Signal;HPM_P1;HPM_P2
2023/07/16 00:02:10;;;;;;;2.22;0.80;;;24.00;66.30;;;;;;5034593;28;20050;-60
2023/07/16 00:04:35;;;;;;;2.03;0.80;;;24.00;66.30;;;;;;5033932;28;20037;-60
2023/07/16 00:07:04;;;;;;;2.42;0.80;;;23.90;66.20;;;;;;5032589;28;20577;-60
2023/07/16 00:09:29;;;;;;;1.67;0.88;;;23.90;66.30;;;;;;5033569;28;20088;-60
2023/07/16 00:11:56;;;;;;;1.80;0.80;;;23.90;66.30;;;;;;5034565;28;20080;-60
2023/07/16 00:14:21;;;;;;;1.70;0.70;;;23.90;66.30;;;;;;5031895;28;20077;-60
2023/07/16 00:16:47;;;;;;;1.88;0.80;;;23.90;66.20;;;;;;5033150;28;20418;-60
2023/07/16 00:19:14;;;;;;;1.77;0.80;;;23.90;66.20;;;;;;5033899;28;20095;-60
2023/07/16 00:21:40;;;;;;;1.25;0.70;;;23.90;66.20;;;;;;5033103;28;20046;-60
2023/07/16 00:24:05;;;;;;;2.80;0.70;;;23.90;66.20;;;;;;5033992;28;20052;-60
2023/07/16 00:26:31;;;;;;;1.08;0.68;;;23.90;66.20;;;;;;5032690;28;20463;-60
2023/07/16 00:28:56;;;;;;;4.07;0.85;;;23.90;66.20;;;;;;5033028;28;20045;-60
2023/07/16 00:31:22;;;;;;;2.25;0.70;;;23.90;66.20;;;;;;5034013;28;20033;-60
2023/07/16 00:33:48;;;;;;;3.42;0.90;;;23.90;66.20;;;;;;5031995;28;20452;-61
2023/07/16 00:36:13;;;;;;;1.30;0.50;;;23.90;66.20;;;;;;5031785;28;20048;-60
2023/07/16 00:38:42;;;;;;;2.85;0.80;;;23.90;66.20;;;;;;5033416;28;20500;-60
2023/07/16 00:41:08;;;;;;;2.85;0.80;;;23.90;66.90;;;;;;5034122;28;20037;-60
2023/07/16 00:43:33;;;;;;;2.58;0.80;;;23.90;66.20;;;;;;5032525;28;20102;-60
2023/07/16 00:45:59;;;;;;;1.88;0.70;;;23.90;66.20;;;;;;5034018;28;20053;-60
2023/07/16 00:48:25;;;;;;;1.75;0.75;;;23.90;66.20;;;;;;5033467;28;20033;-60
2023/07/16 00:50:51;;;;;;;1.85;0.70;;;23.90;66.20;;;;;;5031232;28;20171;-60
2023/07/16 00:53:16;;;;;;;1.60;0.70;;;23.90;66.20;;;;;;5032044;28;20091;-60
2023/07/16 00:55:42;;;;;;;1.80;0.73;;;23.90;66.20;;;;;;5031678;28;20049;-60
2023/07/16 00:58:08;;;;;;;1.73;0.70;;;23.90;66.20;;;;;;5033033;28;20071;-60
2023/07/16 01:00:39;;;;;;;1.60;0.77;;;23.80;66.20;;;;;;5033268;28;20443;-60
2023/07/16 01:03:13;;;;;;;1.45;0.73;;;23.80;66.10;;;;;;5032330;28;20033;-60
2023/07/16 01:05:45;;;;;;;2.22;0.70;;;23.80;66.10;;;;;;5033393;28;20191;-60
2023/07/16 01:08:11;;;;;;;2.50;0.80;;;23.80;66.10;;;;;;5031916;28;20038;-60
2023/07/16 01:10:38;;;;;;;1.35;0.70;;;23.90;66.20;;;;;;5031294;28;20040;-60
2023/07/16 01:13:03;;;;;;;1.52;0.60;;;23.80;66.20;;;;;;5033040;28;20061;-60
2023/07/16 01:15:29;;;;;;;1.92;0.80;;;23.80;66.20;;;;;;5015391;28;20215;-60
2023/07/16 01:17:54;;;;;;;2.22;0.70;;;23.80;66.10;;;;;;5032126;28;20664;-60
2023/07/16 01:20:20;;;;;;;1.88;0.70;;;23.80;66.10;;;;;;5028615;28;20046;-60
2023/07/16 01:23:02;;;;;;;2.67;0.80;;;23.80;66.10;;;;;;5022069;28;20046;-60
2023/07/16 01:25:45;;;;;;;1.98;0.80;;;23.80;66.10;;;;;;5011431;28;20077;-60
2023/07/16 01:28:27;;;;;;;1.40;0.70;;;23.80;66.10;;;;;;5011129;28;20046;-60
2023/07/16 01:30:53;;;;;;;1.42;0.63;;;23.80;66.00;;;;;;5012369;28;20064;-60
2023/07/16 01:33:19;;;;;;;1.70;0.70;;;23.80;66.10;;;;;;5026941;28;20034;-61
2023/07/16 01:35:44;;;;;;;1.88;0.70;;;23.80;66.10;;;;;;5011684;28;20048;-60
2023/07/16 01:38:10;;;;;;;1.95;0.80;;;23.80;66.10;;;;;;5011555;28;20077;-60
2023/07/16 01:40:36;;;;;;;0.80;0.60;;;23.80;66.00;;;;;;5003974;28;20056;-60
2023/07/16 01:43:01;;;;;;;1.48;0.77;;;23.80;66.00;;;;;;5031342;28;20041;-60
2023/07/16 01:45:27;;;;;;;2.00;0.80;;;23.70;65.90;;;;;;5012311;28;20092;-60
2023/07/16 01:48:23;;;;;;;1.20;0.50;;;23.70;65.90;;;;;;5012796;28;20041;-60
2023/07/16 01:50:49;;;;;;;1.55;0.60;;;23.70;65.90;;;;;;5012998;28;20211;-60
2023/07/16 01:53:14;;;;;;;1.30;0.70;;;23.70;66.00;;;;;;5012145;28;20077;-60
2023/07/16 01:55:40;;;;;;;1.55;0.63;;;23.70;66.00;;;;;;5012249;28;20192;-60
2023/07/16 01:58:06;;;;;;;1.77;0.63;;;23.70;65.90;;;;;;5013810;28;20038;-60
2023/07/16 02:00:31;;;;;;;1.15;0.65;;;23.70;65.90;;;;;;5031161;28;20046;-60
2023/07/16 02:02:57;;;;;;;1.80;0.85;;;23.70;65.90;;;;;;5032408;28;20080;-60
2023/07/16 02:05:22;;;;;;;2.25;0.70;;;23.70;65.90;;;;;;5012358;28;20038;-60
2023/07/16 02:07:48;;;;;;;2.55;0.80;;;23.70;65.90;;;;;;5011554;28;20060;-61
2023/07/16 02:10:13;;;;;;;1.70;0.80;;;23.70;65.90;;;;;;5012918;28;20042;-60
2023/07/16 02:12:39;;;;;;;2.17;1.00;;;23.70;65.90;;;;;;5012637;28;20145;-60
2023/07/16 02:15:05;;;;;;;2.28;0.80;;;23.70;65.80;;;;;;5010719;28;20049;-60
2023/07/16 02:17:31;;;;;;;1.80;0.80;;;23.70;65.80;;;;;;5012272;28;20076;-60
2023/07/16 02:19:56;;;;;;;1.50;0.70;;;23.70;65.90;;;;;;5011497;28;20046;-60
2023/07/16 02:22:22;;;;;;;1.75;0.75;;;23.70;65.80;;;;;;5011593;28;20038;-60
2023/07/16 02:24:47;;;;;;;1.58;0.73;;;23.70;65.80;;;;;;5012404;28;20370;-60
2023/07/16 02:27:13;;;;;;;1.10;0.60;;;23.70;65.80;;;;;;5011917;28;20073;-60
2023/07/16 02:29:39;;;;;;;1.80;0.60;;;23.70;65.80;;;;;;5012465;28;20441;-60
2023/07/16 02:32:04;;;;;;;2.25;0.95;;;23.70;65.80;;;;;;5012480;28;20452;-60
2023/07/16 02:34:30;;;;;;;1.60;0.70;;;23.70;65.80;;;;;;5011587;28;20555;-60
2023/07/16 02:36:56;;;;;;;1.58;0.70;;;23.70;65.80;;;;;;5012521;28;20038;-60
2023/07/16 02:39:21;;;;;;;1.83;0.70;;;23.70;65.80;;;;;;5012913;28;20034;-60
2023/07/16 02:41:47;;;;;;;2.33;0.80;;;23.70;65.80;;;;;;5015593;28;20540;-60
2023/07/16 02:44:12;;;;;;;2.03;0.80;;;23.70;65.80;;;;;;5023920;28;20052;-60
2023/07/16 02:46:38;;;;;;;2.33;0.70;;;23.60;65.80;;;;;;5035870;28;20045;-60
2023/07/16 02:49:04;;;;;;;1.23;0.60;;;23.60;65.70;;;;;;5033667;28;20046;-60
2023/07/16 02:51:30;;;;;;;1.80;0.68;;;23.60;65.70;;;;;;5035202;28;20627;-60
2023/07/16 02:53:55;;;;;;;1.67;0.70;;;23.60;65.70;;;;;;5035318;28;20057;-60
2023/07/16 02:56:21;;;;;;;2.47;0.93;;;23.60;65.70;;;;;;5035169;28;20473;-60
2023/07/16 02:58:46;;;;;;;2.80;0.60;;;23.60;65.70;;;;;;5033802;28;20049;-60
2023/07/16 03:01:12;;;;;;;1.60;0.80;;;23.60;65.70;;;;;;5035313;28;20441;-60
2023/07/16 03:03:38;;;;;;;2.13;0.88;;;23.60;65.70;;;;;;5033990;28;20045;-60
2023/07/16 03:06:03;;;;;;;1.88;0.98;;;23.60;65.60;;;;;;5034210;28;20072;-60
2023/07/16 03:08:31;;;;;;;2.28;0.80;;;23.60;65.60;;;;;;5035207;28;20045;-60
2023/07/16 03:10:57;;;;;;;2.03;0.93;;;23.60;65.60;;;;;;5033914;28;20507;-60
2023/07/16 03:13:22;;;;;;;1.50;0.80;;;23.60;65.60;;;;;;5034051;28;20308;-60
2023/07/16 03:15:48;;;;;;;2.53;0.80;;;23.60;65.60;;;;;;5035146;28;20095;-60
2023/07/16 03:18:14;;;;;;;2.55;0.80;;;23.60;65.60;;;;;;5033281;28;20397;-60
2023/07/16 03:20:39;;;;;;;2.25;0.70;;;23.60;65.60;;;;;;5034652;28;20132;-60
2023/07/16 03:23:05;;;;;;;2.25;0.80;;;23.60;65.60;;;;;;5035412;28;20405;-60
2023/07/16 03:25:30;;;;;;;2.25;0.88;;;23.60;65.60;;;;;;5033721;28;20054;-60
2023/07/16 03:27:56;;;;;;;1.98;0.90;;;23.60;65.60;;;;;;5035334;28;20049;-60
2023/07/16 03:30:21;;;;;;;1.98;0.98;;;23.60;65.60;;;;;;5034995;28;20443;-59
2023/07/16 03:32:47;;;;;;;1.70;0.63;;;23.60;65.70;;;;;;5034053;28;20044;-60
2023/07/16 03:35:12;;;;;;;1.77;0.80;;;23.60;65.60;;;;;;5034647;28;20045;-60
2023/07/16 03:37:38;;;;;;;1.50;0.60;;;23.50;65.50;;;;;;5033955;28;20049;-60
2023/07/16 03:40:14;;;;;;;1.85;0.80;;;23.60;66.20;;;;;;5034816;28;20519;-60
2023/07/16 03:42:40;;;;;;;2.08;0.88;;;23.60;65.60;;;;;;5034661;28;20125;-60
2023/07/16 03:45:07;;;;;;;1.30;0.60;;;23.50;65.50;;;;;;5033925;28;20049;-60
2023/07/16 03:47:32;;;;;;;1.77;0.70;;;23.50;65.50;;;;;;5034748;28;20046;-60
2023/07/16 03:49:58;;;;;;;2.20;0.73;;;23.50;65.50;;;;;;5034515;28;20049;-60
2023/07/16 03:52:24;;;;;;;2.13;0.77;;;23.50;65.50;;;;;;5033189;28;20481;-60
2023/07/16 03:54:50;;;;;;;2.20;0.85;;;23.50;65.50;;;;;;5032816;28;20107;-60
2023/07/16 03:57:16;;;;;;;1.88;0.82;;;23.50;65.50;;;;;;5034807;28;20045;-60
2023/07/16 03:59:42;;;;;;;1.75;0.73;;;23.50;65.50;;;;;;5032223;28;20037;-60
2023/07/16 04:02:08;;;;;;;1.60;0.70;;;23.50;65.50;;;;;;5020953;28;20045;-60
2023/07/16 04:04:33;;;;;;;2.25;0.80;;;23.50;65.50;;;;;;5028296;28;20057;-60
2023/07/16 04:06:59;;;;;;;1.08;0.70;;;23.50;65.50;;;;;;5033087;28;20052;-60
2023/07/16 04:09:25;;;;;;;1.60;0.77;;;23.50;65.50;;;;;;5034160;28;20044;-60
2023/07/16 04:11:50;;;;;;;2.38;0.70;;;23.50;65.50;;;;;;5034178;28;20088;-60
2023/07/16 04:14:16;;;;;;;1.73;0.80;;;23.50;65.50;;;;;;5031575;28;20041;-60
2023/07/16 04:16:41;;;;;;;1.55;0.82;;;23.50;65.50;;;;;;5033976;28;20037;-60
2023/07/16 04:19:08;;;;;;;1.60;0.75;;;23.50;65.50;;;;;;5032723;28;20045;-60
2023/07/16 04:21:34;;;;;;;1.15;0.60;;;23.50;65.50;;;;;;5033390;28;20037;-60
2023/07/16 04:23:59;;;;;;;1.73;0.80;;;23.50;65.50;;;;;;5034046;28;20114;-60
2023/07/16 04:26:25;;;;;;;1.70;0.80;;;23.50;65.50;;;;;;5034272;28;20117;-60
2023/07/16 04:28:50;;;;;;;2.55;0.85;;;23.50;65.60;;;;;;5032903;28;20452;-60
2023/07/16 04:31:16;;;;;;;2.33;0.95;;;23.50;65.60;;;;;;5031968;28;20037;-60
2023/07/16 04:33:41;;;;;;;2.28;0.90;;;23.50;65.80;;;;;;5033526;28;20152;-60
2023/07/16 04:36:07;;;;;;;1.83;0.90;;;23.50;65.80;;;;;;5031921;28;20120;-60
2023/07/16 04:38:32;;;;;;;1.67;0.90;;;23.50;65.80;;;;;;5033545;28;20507;-60
2023/07/16 04:40:58;;;;;;;1.70;0.90;;;23.50;65.80;;;;;;5033040;28;20061;-60
2023/07/16 04:43:24;;;;;;;1.75;0.90;;;23.50;65.90;;;;;;5033759;28;20041;-60
2023/07/16 04:45:49;;;;;;;2.80;1.08;;;23.50;65.80;;;;;;5033246;28;20037;-60
2023/07/16 04:48:15;;;;;;;2.35;1.00;;;23.50;65.80;;;;;;5033065;28;20041;-60
2023/07/16 04:50:40;;;;;;;1.80;0.80;;;23.50;65.80;;;;;;5031613;28;20041;-60
2023/07/16 04:53:06;;;;;;;2.38;1.10;;;23.50;65.80;;;;;;5032465;28;20049;-61
2023/07/16 04:55:36;;;;;;;2.40;0.88;;;23.60;65.80;;;;;;5032119;28;20140;-61
2023/07/16 04:58:02;;;;;;;2.22;1.02;;;23.60;65.80;;;;;;5032214;28;20056;-60
2023/07/16 05:00:27;;;;;;;2.08;0.90;;;23.50;65.70;;;;;;5031871;28;20033;-60
2023/07/16 05:02:53;;;;;;;2.55;1.10;;;23.60;65.70;;;;;;5031979;28;20100;-60
2023/07/16 05:05:19;;;;;;;1.67;0.90;;;23.60;65.60;;;;;;5032891;28;20037;-60
2023/07/16 05:07:44;;;;;;;1.95;1.00;;;23.60;65.60;;;;;;5033180;28;20116;-60
2023/07/16 05:10:10;;;;;;;3.15;1.00;;;23.60;65.60;;;;;;5032444;28;20406;-60
2023/07/16 05:12:36;;;;;;;1.95;0.90;;;23.60;65.60;;;;;;5032995;28;20041;-60
2023/07/16 05:15:02;;;;;;;3.88;1.33;;;23.60;65.60;;;;;;5031032;28;20034;-59
2023/07/16 05:17:27;;;;;;;6.97;1.10;;;23.60;65.50;;;;;;5023858;28;20389;-57
2023/07/16 05:19:53;;;;;;;4.20;1.70;;;23.60;65.50;;;;;;5023088;28;20050;-57
2023/07/16 05:22:18;;;;;;;5.07;1.38;;;23.60;64.50;;;;;;5013154;28;20065;-57
2023/07/16 05:24:44;;;;;;;7.28;2.30;;;23.60;64.30;;;;;;5012289;28;20054;-60
2023/07/16 05:27:10;;;;;;;7.93;1.90;;;23.50;63.60;;;;;;5013123;28;20048;-59
2023/07/16 05:29:35;;;;;;;7.38;2.05;;;23.50;62.70;;;;;;5031247;28;20049;-61
2023/07/16 05:32:07;;;;;;;5.97;1.85;;;23.40;62.40;;;;;;5029804;28;20121;-59
2023/07/16 05:34:33;;;;;;;6.07;2.10;;;23.40;62.30;;;;;;5013074;28;20088;-59
2023/07/16 05:36:59;;;;;;;7.80;2.47;;;23.40;62.80;;;;;;5012678;28;20065;-59
2023/07/16 05:39:24;;;;;;;7.45;2.22;;;23.40;62.70;;;;;;5012106;28;20511;-59
2023/07/16 05:41:50;;;;;;;6.35;1.80;;;23.40;62.70;;;;;;5031643;28;20096;-59
2023/07/16 05:44:16;;;;;;;9.13;2.50;;;23.40;62.60;;;;;;5031663;28;20054;-60
2023/07/16 05:46:41;;;;;;;5.50;1.83;;;23.40;62.50;;;;;;5030482;28;20516;-59
2023/07/16 05:49:07;;;;;;;7.32;3.05;;;23.40;62.40;;;;;;5032544;28;20049;-59
2023/07/16 05:51:32;;;;;;;5.57;2.33;;;23.40;62.40;;;;;;5029524;28;20065;-60
2023/07/16 05:53:58;;;;;;;5.18;2.20;;;23.50;62.30;;;;;;5032486;28;20049;-59
2023/07/16 05:56:24;;;;;;;7.70;2.30;;;23.50;62.20;;;;;;5032471;28;20052;-59
2023/07/16 05:58:49;;;;;;;6.05;2.00;;;23.50;62.10;;;;;;5016591;28;20041;-60
2023/07/16 06:01:15;;;;;;;8.63;2.63;;;23.50;62.00;;;;;;5024601;28;20056;-60
2023/07/16 06:03:40;;;;;;;6.07;2.40;;;23.50;61.90;;;;;;5032189;28;20056;-59
2023/07/16 06:06:08;;;;;;;6.18;2.13;;;23.50;61.90;;;;;;5031698;28;20037;-60
2023/07/16 06:08:34;;;;;;;5.78;2.25;;;23.50;61.80;;;;;;5031913;28;20121;-59
2023/07/16 06:11:00;;;;;;;5.90;2.90;;;23.50;61.80;;;;;;5032260;28;20192;-60
2023/07/16 06:13:25;;;;;;;5.72;2.58;;;23.50;61.80;;;;;;5031462;28;20048;-60
2023/07/16 06:15:51;;;;;;;6.53;2.55;;;23.50;61.70;;;;;;5034374;28;20107;-60
2023/07/16 06:18:16;;;;;;;8.20;2.55;;;23.50;61.70;;;;;;5036332;28;20046;-59
2023/07/16 06:20:45;;;;;;;5.32;2.53;;;23.50;61.70;;;;;;5034887;28;20049;-59
2023/07/16 06:23:16;;;;;;;5.95;2.58;;;23.50;61.70;;;;;;5036131;28;20045;-60
2023/07/16 06:25:44;;;;;;;6.15;2.22;;;23.50;61.80;;;;;;5034347;28;20091;-59
2023/07/16 06:28:10;;;;;;;7.55;2.35;;;23.50;61.80;;;;;;5033946;28;20510;-59
2023/07/16 06:30:35;;;;;;;6.78;2.67;;;23.50;61.80;;;;;;5035674;28;20496;-59
2023/07/16 06:33:01;;;;;;;7.47;2.45;;;23.50;61.80;;;;;;5034656;28;20056;-60
2023/07/16 06:35:26;;;;;;;5.63;2.67;;;23.50;61.70;;;;;;5034727;28;20036;-60
2023/07/16 06:37:52;;;;;;;5.72;2.50;;;23.50;61.80;;;;;;5034539;28;20500;-61
2023/07/16 06:40:18;;;;;;;7.63;2.50;;;23.50;61.80;;;;;;5035693;28;20493;-60
2023/07/16 06:42:43;;;;;;;7.25;2.70;;;23.50;61.80;;;;;;5033587;28;20046;-61
2023/07/16 06:45:09;;;;;;;4.57;2.30;;;23.50;61.80;;;;;;5036110;28;20041;-60
2023/07/16 06:47:35;;;;;;;6.55;2.33;;;23.50;61.80;;;;;;5035061;28;20103;-60
2023/07/16 06:50:00;;;;;;;8.40;2.83;;;23.60;61.80;;;;;;5035527;28;20053;-60
2023/07/16 06:52:27;;;;;;;5.45;2.58;;;23.50;61.70;;;;;;5035634;28;20133;-60
2023/07/16 06:54:53;;;;;;;8.65;2.80;;;23.60;61.80;;;;;;5034428;28;20056;-60
2023/07/16 06:57:19;;;;;;;6.05;2.47;;;23.60;61.80;;;;;;5035292;28;20091;-61
2023/07/16 06:59:44;;;;;;;6.38;2.67;;;23.60;61.70;;;;;;5035294;28;20037;-61
2023/07/16 07:02:10;;;;;;;5.72;2.53;;;23.60;61.80;;;;;;5028425;28;20235;-61
2023/07/16 07:04:36;;;;;;;6.57;2.50;;;23.60;61.80;;;;;;5014981;28;20087;-61
2023/07/16 07:07:01;;;;;;;6.13;2.38;;;23.60;61.70;;;;;;5031998;28;20041;-60
2023/07/16 07:09:27;;;;;;;6.38;2.70;;;23.60;61.70;;;;;;5034620;28;20041;-61
2023/07/16 07:11:53;;;;;;;5.88;2.33;;;23.60;61.70;;;;;;5030319;28;20045;-61
2023/07/16 07:14:18;;;;;;;6.75;2.75;;;23.60;61.60;;;;;;5035163;28;20041;-61
2023/07/16 07:16:44;;;;;;;6.47;2.50;;;23.60;61.60;;;;;;5031901;28;20033;-60
2023/07/16 07:19:09;;;;;;;6.45;2.60;;;23.60;61.60;;;;;;5033221;28;20044;-61
2023/07/16 07:21:35;;;;;;;6.00;2.50;;;23.60;61.60;;;;;;5031497;28;20034;-61
2023/07/16 07:24:00;;;;;;;6.95;2.72;;;23.60;61.60;;;;;;5033563;28;20045;-61
2023/07/16 07:26:26;;;;;;;7.35;2.95;;;23.60;61.70;;;;;;5031464;28;20041;-61
2023/07/16 07:28:53;;;;;;;7.63;2.80;;;23.60;61.70;;;;;;5034111;28;20065;-61
2023/07/16 07:31:18;;;;;;;7.25;2.95;;;23.60;61.70;;;;;;5024978;28;20143;-60
2023/07/16 07:33:44;;;;;;;6.50;2.58;;;23.60;61.60;;;;;;5014504;28;20245;-60
2023/07/16 07:36:09;;;;;;;7.50;2.75;;;23.60;61.60;;;;;;5022493;28;20033;-60
2023/07/16 07:38:35;;;;;;;8.57;3.10;;;23.60;61.50;;;;;;5033918;28;20053;-61
2023/07/16 07:41:01;;;;;;;6.40;2.85;;;23.60;61.50;;;;;;5034271;28;20128;-61
2023/07/16 07:43:26;;;;;;;6.30;2.67;;;23.70;61.50;;;;;;5034610;28;20042;-60
2023/07/16 07:45:52;;;;;;;7.10;2.80;;;23.70;61.50;;;;;;5033061;28;20116;-61
2023/07/16 07:48:18;;;;;;;8.38;2.90;;;23.70;61.50;;;;;;5033772;28;20052;-60
2023/07/16 07:50:43;;;;;;;6.22;3.00;;;23.70;61.60;;;;;;5033321;28;20037;-61
2023/07/16 07:53:09;;;;;;;7.57;2.75;;;23.70;61.70;;;;;;5034441;28;20167;-61
2023/07/16 07:55:37;;;;;;;7.45;3.15;;;23.70;61.80;;;;;;5032181;28;20092;-61
2023/07/16 07:58:03;;;;;;;8.00;3.13;;;23.70;61.90;;;;;;5033669;28;20049;-61
2023/07/16 08:00:28;;;;;;;6.50;2.65;;;23.70;61.90;;;;;;5034196;28;20416;-61
2023/07/16 08:02:54;;;;;;;8.45;2.88;;;23.70;62.00;;;;;;5034300;28;20547;-61
2023/07/16 08:05:20;;;;;;;9.30;3.08;;;23.70;62.00;;;;;;5033582;28;20041;-61
2023/07/16 08:07:45;;;;;;;8.30;3.00;;;23.70;62.00;;;;;;5032330;28;20039;-61
2023/07/16 08:10:11;;;;;;;8.60;3.20;;;23.80;62.10;;;;;;5034108;28;20115;-61
2023/07/16 08:12:36;;;;;;;6.85;3.17;;;23.70;62.00;;;;;;5032892;28;20107;-61
2023/07/16 08:15:03;;;;;;;8.50;3.20;;;23.80;62.10;;;;;;5034295;28;20033;-61
2023/07/16 08:17:29;;;;;;;5.88;2.97;;;23.80;62.20;;;;;;5033608;28;20072;-61
2023/07/16 08:19:54;;;;;;;7.45;3.05;;;23.80;62.00;;;;;;5033217;28;20461;-61
2023/07/16 08:22:21;;;;;;;6.75;2.95;;;23.80;61.90;;;;;;5033730;28;20137;-60
2023/07/16 08:24:47;;;;;;;6.75;3.20;;;23.80;61.90;;;;;;5033667;28;20056;-61
2023/07/16 08:27:12;;;;;;;6.20;3.00;;;23.80;61.90;;;;;;5032900;28;20041;-61
2023/07/16 08:29:38;;;;;;;7.53;3.17;;;23.80;61.90;;;;;;5033691;28;20046;-59
2023/07/16 08:32:04;;;;;;;7.47;3.03;;;23.80;61.90;;;;;;5033506;28;20461;-58
2023/07/16 08:34:29;;;;;;;7.88;3.17;;;23.90;61.90;;;;;;5032481;28;20098;-59
2023/07/16 08:36:55;;;;;;;8.93;3.10;;;23.90;61.90;;;;;;5031994;28;20523;-60
2023/07/16 08:39:22;;;;;;;8.90;3.63;;;23.90;61.80;;;;;;5032226;28;20045;-60
2023/07/16 08:41:48;;;;;;;5.50;2.70;;;23.90;61.80;;;;;;5028385;28;20053;-60
2023/07/16 08:44:13;;;;;;;6.70;3.42;;;23.90;61.80;;;;;;5030114;28;20060;-60
2023/07/16 08:46:39;;;;;;;5.60;3.00;;;23.90;61.80;;;;;;5032951;28;20041;-61
2023/07/16 08:49:07;;;;;;;5.68;2.75;;;23.90;61.70;;;;;;5014706;28;20051;-60
2023/07/16 08:51:32;;;;;;;7.38;3.30;;;23.90;61.60;;;;;;5031552;28;20048;-61
2023/07/16 08:53:58;;;;;;;7.65;3.40;;;23.90;61.50;;;;;;5031027;28;20065;-63
2023/07/16 08:56:24;;;;;;;6.43;3.05;;;23.90;61.50;;;;;;5030680;28;20041;-60
2023/07/16 08:58:50;;;;;;;8.48;3.28;;;23.90;61.60;;;;;;5031294;28;20125;-59
2023/07/16 09:01:17;;;;;;;9.15;3.42;;;23.90;61.70;;;;;;5010962;28;20125;-61
2023/07/16 09:03:43;;;;;;;6.68;3.28;;;23.90;61.70;;;;;;4995826;28;20053;-61
2023/07/16 09:06:09;;;;;;;8.20;3.33;;;23.90;61.70;;;;;;5013644;28;20049;-60
2023/07/16 09:08:34;;;;;;;8.32;2.92;;;23.90;61.70;;;;;;5012264;28;20130;-57
2023/07/16 09:11:00;;;;;;;8.63;3.45;;;23.90;61.70;;;;;;5013263;28;20404;-59
2023/07/16 09:13:27;;;;;;;7.90;3.45;;;23.90;61.70;;;;;;5013371;28;20045;-64
2023/07/16 09:15:54;;;;;;;10.07;3.47;;;23.90;61.90;;;;;;5027490;28;20049;-60
2023/07/16 09:18:21;;;;;;;8.93;3.30;;;23.90;62.10;;;;;;5013106;28;20348;-61
2023/07/16 09:20:47;;;;;;;7.53;3.63;;;24.00;62.30;;;;;;5012959;28;20046;-60
2023/07/16 09:23:13;;;;;;;8.15;3.42;;;24.00;62.30;;;;;;5010979;28;20053;-60
2023/07/16 09:25:40;;;;;;;8.63;3.42;;;24.00;62.40;;;;;;4994780;28;20081;-60
2023/07/16 09:28:06;;;;;;;8.77;3.22;;;24.00;62.30;;;;;;5029128;28;20512;-60
2023/07/16 09:30:33;;;;;;;8.98;3.80;;;24.00;62.30;;;;;;5030483;28;20045;-60
2023/07/16 09:33:03;;;;;;;8.75;3.63;;;24.00;62.40;;;;;;5032697;28;20045;-61
2023/07/16 09:35:29;;;;;;;7.10;3.60;;;24.00;62.40;;;;;;5031222;28;20091;-60
2023/07/16 09:37:54;;;;;;;9.85;3.50;;;24.00;62.40;;;;;;5029605;28;20049;-61
2023/07/16 09:40:20;;;;;;;9.00;3.75;;;24.00;62.40;;;;;;5015139;28;20044;-61
2023/07/16 09:42:45;;;;;;;7.50;3.60;;;24.00;62.40;;;;;;5014521;28;20046;-61
2023/07/16 09:45:18;;;;;;;8.05;3.38;;;24.10;62.50;;;;;;5013941;28;20045;-61
2023/07/16 09:47:44;;;;;;;7.80;3.47;;;24.10;62.60;;;;;;5031694;28;20041;-60
2023/07/16 09:50:11;;;;;;;8.43;3.53;;;24.10;62.60;;;;;;5031261;28;20500;-61
2023/07/16 09:52:36;;;;;;;8.60;3.30;;;24.00;62.60;;;;;;5031357;28;20041;-61
2023/07/16 09:55:03;;;;;;;7.50;3.40;;;24.10;63.30;;;;;;5031030;28;20062;-61
2023/07/16 09:57:30;;;;;;;7.93;3.30;;;24.10;62.70;;;;;;5030966;28;20400;-61
2023/07/16 09:59:56;;;;;;;9.68;3.53;;;24.10;62.60;;;;;;5029968;28;20030;-62
2023/07/16 10:02:21;;;;;;;7.85;3.70;;;24.10;62.60;;;;;;5028015;28;20046;-61
2023/07/16 10:04:47;;;;;;;8.18;3.58;;;24.00;62.50;;;;;;5029383;28;20041;-62
2023/07/16 10:07:23;;;;;;;7.82;3.67;;;24.10;62.60;;;;;;5027676;28;20057;-61
2023/07/16 10:09:56;;;;;;;6.57;3.58;;;24.10;62.70;;;;;;5030192;28;20103;-61
2023/07/16 10:12:23;;;;;;;7.22;3.45;;;24.10;62.70;;;;;;5027757;28;20046;-62
2023/07/16 10:14:50;;;;;;;6.85;3.55;;;24.10;62.70;;;;;;5031353;28;20404;-61
2023/07/16 10:17:25;;;;;;;8.15;3.60;;;24.10;62.70;;;;;;5027853;28;20033;-62
2023/07/16 10:19:51;;;;;;;8.52;3.70;;;24.20;63.30;;;;;;5022083;28;20045;-61
2023/07/16 10:22:18;;;;;;;6.18;3.83;;;24.20;62.60;;;;;;5031344;28;20034;-62
2023/07/16 10:24:43;;;;;;;8.57;3.63;;;24.20;63.20;;;;;;5029929;28;20069;-61
2023/07/16 10:27:09;;;;;;;6.93;3.67;;;24.20;62.50;;;;;;5025132;28;20076;-62
2023/07/16 10:29:36;;;;;;;8.88;4.00;;;24.20;62.30;;;;;;5011884;28;20057;-61
2023/07/16 10:32:02;;;;;;;8.10;3.20;;;24.20;62.30;;;;;;5019462;28;20169;-62
2023/07/16 10:34:28;;;;;;;6.93;3.20;;;24.20;62.20;;;;;;5031127;28;20073;-61
2023/07/16 10:36:53;;;;;;;7.75;3.53;;;24.20;62.20;;;;;;5030469;28;20077;-61
2023/07/16 10:39:19;;;;;;;6.57;3.28;;;24.10;62.10;;;;;;5031837;28;20045;-62
2023/07/16 10:41:44;;;;;;;6.97;2.97;;;24.10;62.10;;;;;;5029457;28;20045;-61
2023/07/16 10:44:14;;;;;;;9.13;3.42;;;24.10;62.10;;;;;;5030752;28;20048;-62
2023/07/16 10:46:42;;;;;;;9.35;3.45;;;24.10;62.20;;;;;;5029024;28;20049;-61
2023/07/16 10:49:08;;;;;;;6.53;3.45;;;24.10;62.20;;;;;;5030614;28;20099;-62
2023/07/16 10:51:33;;;;;;;8.10;3.95;;;24.10;62.20;;;;;;5031540;28;20045;-61
2023/07/16 10:54:05;;;;;;;7.97;3.65;;;24.10;62.30;;;;;;5030918;28;20057;-60
2023/07/16 10:56:35;;;;;;;9.98;3.65;;;24.10;62.30;;;;;;5025977;28;20049;-63
2023/07/16 10:59:01;;;;;;;8.13;3.65;;;24.10;62.30;;;;;;5028086;28;20499;-61
2023/07/16 11:01:29;;;;;;;8.90;3.80;;;24.10;62.30;;;;;;5032591;28;20038;-61
2023/07/16 11:04:01;;;;;;;7.35;3.83;;;24.10;62.30;;;;;;5030585;28;20068;-61
2023/07/16 11:06:26;;;;;;;6.93;3.70;;;24.10;62.40;;;;;;5033763;28;20052;-60
2023/07/16 11:08:52;;;;;;;8.80;3.33;;;24.10;62.40;;;;;;5030961;28;20045;-61
2023/07/16 11:11:28;;;;;;;8.25;3.50;;;24.20;62.40;;;;;;5034692;28;20033;-61
2023/07/16 11:13:53;;;;;;;7.38;3.80;;;24.20;63.10;;;;;;5030305;28;20057;-60
2023/07/16 11:16:19;;;;;;;8.00;3.33;;;24.20;62.50;;;;;;5033754;28;20061;-61
2023/07/16 11:18:44;;;;;;;7.97;3.28;;;24.20;62.50;;;;;;5031722;28;20033;-61
2023/07/16 11:21:10;;;;;;;8.43;3.47;;;24.20;62.50;;;;;;5016654;28;20486;-61
2023/07/16 11:23:36;;;;;;;6.93;3.85;;;24.20;62.60;;;;;;5032287;28;20042;-61
2023/07/16 11:26:04;;;;;;;10.48;3.85;;;24.20;62.60;;;;;;5032981;28;20091;-61
2023/07/16 11:28:38;;;;;;;7.38;3.75;;;24.20;62.60;;;;;;5032024;28;20397;-61
2023/07/16 11:31:38;;;;;;;8.35;3.72;;;24.20;62.70;;;;;;5024518;28;20040;-61
2023/07/16 11:34:03;;;;;;;14.38;4.05;;;24.20;62.70;;;;;;5023265;28;20076;-60
2023/07/16 11:36:29;;;;;;;8.20;3.60;;;24.20;62.70;;;;;;5020659;28;20037;-61
2023/07/16 11:38:55;;;;;;;6.93;3.60;;;24.20;62.80;;;;;;5021213;28;20053;-60
2023/07/16 11:41:21;;;;;;;7.13;3.50;;;24.20;62.90;;;;;;5021182;28;20037;-68
2023/07/16 11:43:47;;;;;;;7.13;3.45;;;24.20;62.90;;;;;;5024841;28;20049;-67
2023/07/16 11:46:16;;;;;;;8.27;3.90;;;24.20;62.80;;;;;;5030687;28;20034;-61
2023/07/16 11:48:41;;;;;;;9.98;3.67;;;24.20;63.30;;;;;;5028581;28;20053;-62
2023/07/16 11:51:07;;;;;;;5.95;3.67;;;24.20;62.50;;;;;;5033189;28;20048;-62
2023/07/16 11:53:33;;;;;;;8.20;4.03;;;24.20;62.40;;;;;;5032638;28;20480;-62
2023/07/16 11:55:58;;;;;;;9.35;3.65;;;24.20;62.20;;;;;;5034580;28;20125;-61
2023/07/16 11:58:24;;;;;;;9.32;3.83;;;24.20;62.10;;;;;;5032116;28;20041;-62
2023/07/16 12:00:51;;;;;;;7.57;3.72;;;24.20;62.00;;;;;;5033765;28;20045;-62
2023/07/16 12:03:16;;;;;;;6.05;2.92;;;24.20;62.00;;;;;;5034108;28;20050;-62
2023/07/16 12:05:43;;;;;;;8.25;3.45;;;24.20;62.00;;;;;;5031606;28;20041;-61
2023/07/16 12:08:13;;;;;;;8.48;3.95;;;24.20;62.00;;;;;;5032229;28;20053;-62
2023/07/16 12:10:40;;;;;;;7.20;3.63;;;24.20;62.00;;;;;;5032307;28;20041;-61
2023/07/16 12:13:05;;;;;;;6.55;3.30;;;24.10;62.00;;;;;;5031956;28;20508;-62
2023/07/16 12:15:32;;;;;;;8.27;3.00;;;24.10;62.00;;;;;;5032136;28;20045;-61
2023/07/16 12:17:57;;;;;;;6.97;3.72;;;24.10;61.90;;;;;;5032938;28;20088;-61
2023/07/16 12:20:23;;;;;;;9.70;4.03;;;24.10;61.80;;;;;;5032699;28;20069;-61
2023/07/16 12:22:48;;;;;;;8.98;3.97;;;24.10;61.60;;;;;;5033604;28;20136;-60
2023/07/16 12:25:14;;;;;;;9.15;4.22;;;24.00;61.20;;;;;;5033045;28;20535;-60
2023/07/16 12:27:40;;;;;;;8.50;4.30;;;24.00;60.80;;;;;;5026549;28;20513;-61
2023/07/16 12:30:07;;;;;;;8.27;4.20;;;24.00;60.00;;;;;;5020038;28;20046;-60
2023/07/16 12:32:33;;;;;;;8.87;4.10;;;24.00;59.70;;;;;;5021693;28;20041;-60
2023/07/16 12:35:00;;;;;;;10.77;3.75;;;24.00;59.60;;;;;;5017155;28;20046;-60
2023/07/16 12:37:25;;;;;;;8.38;4.40;;;23.90;59.20;;;;;;5018807;28;20046;-60
2023/07/16 12:39:51;;;;;;;7.30;3.90;;;23.90;58.90;;;;;;5018546;28;20052;-60
2023/07/16 12:42:17;;;;;;;9.35;3.92;;;23.90;58.60;;;;;;5016637;28;20038;-60